Time;durP1;ratioP1;P1;durP2;ratioP2;P2;SDS_P1;SDS_P2;PMS_P1;PMS_P2;Temp;Humidity;BMP_temperature;BMP_pressure;BME280_temperature;BME280_humidity;BME280_pressure;Samples;Min_cycle;Max_cycle;Signal;HPM_P1;HPM_P2
2021/11/28 00:01:39;;;;;;;10.93;6.50;;;1.10;99.90;;;;;;5019463;28;20120;-68
2021/11/28 00:04:04;;;;;;;9.73;6.45;;;1.10;99.90;;;;;;5006676;28;20413;-68
2021/11/28 00:06:31;;;;;;;11.15;6.57;;;1.10;99.90;;;;;;5020800;28;20025;-68
2021/11/28 00:09:18;;;;;;;9.15;6.05;;;1.10;99.90;;;;;;5000106;28;20037;-68
2021/11/28 00:11:46;;;;;;;8.45;4.70;;;1.10;99.90;;;;;;4997605;28;20629;-68
2021/11/28 00:14:14;;;;;;;9.85;4.85;;;1.10;99.90;;;;;;5014367;28;20475;-68
2021/11/28 00:16:39;;;;;;;7.78;4.70;;;1.20;99.90;;;;;;5017030;28;21552;-68
2021/11/28 00:19:06;;;;;;;4.10;3.63;;;1.20;99.90;;;;;;4998623;28;20026;-68
2021/11/28 00:21:33;;;;;;;4.80;3.75;;;1.20;99.90;;;;;;5020615;28;20576;-68
2021/11/28 00:23:59;;;;;;;4.07;3.30;;;1.20;99.90;;;;;;5023797;28;20112;-68
2021/11/28 00:26:25;;;;;;;7.10;4.45;;;1.20;99.90;;;;;;5010032;28;20025;-68
2021/11/28 00:28:51;;;;;;;4.07;3.45;;;1.20;99.90;;;;;;5001464;28;20049;-68
2021/11/28 00:31:17;;;;;;;5.45;3.85;;;1.20;99.90;;;;;;5016767;28;20080;-68
2021/11/28 00:33:43;;;;;;;6.40;3.78;;;1.20;99.90;;;;;;5007476;28;20053;-68
2021/11/28 00:36:10;;;;;;;4.78;4.10;;;1.20;99.90;;;;;;5019525;28;20128;-68
2021/11/28 00:38:36;;;;;;;5.50;3.47;;;1.20;99.90;;;;;;5017984;28;20025;-68
2021/11/28 00:41:02;;;;;;;4.45;3.75;;;1.20;99.90;;;;;;5020992;28;20025;-68
2021/11/28 00:43:27;;;;;;;5.50;4.28;;;1.10;99.90;;;;;;5017401;28;20033;-68
2021/11/28 00:45:53;;;;;;;5.10;4.13;;;1.10;99.90;;;;;;5021763;28;20039;-68
2021/11/28 00:48:19;;;;;;;5.25;4.43;;;1.10;99.90;;;;;;5014873;28;20090;-69
2021/11/28 00:53:13;;;;;;;5.88;4.35;;;1.10;99.90;;;;;;5016929;28;20099;-68
2021/11/28 00:55:38;;;;;;;3.92;3.28;;;1.10;99.90;;;;;;5022589;28;20030;-68
2021/11/28 00:58:04;;;;;;;5.93;3.90;;;1.10;99.90;;;;;;5017375;28;20040;-68
2021/11/28 01:00:30;;;;;;;5.97;4.18;;;1.10;99.90;;;;;;5000159;28;20405;-68
2021/11/28 01:02:55;;;;;;;4.63;4.00;;;1.10;99.90;;;;;;5008001;28;20083;-68
2021/11/28 01:05:21;;;;;;;7.43;4.20;;;1.10;99.90;;;;;;4996427;28;20108;-68
2021/11/28 01:07:47;;;;;;;5.80;3.70;;;1.10;99.90;;;;;;5015302;28;20061;-68
2021/11/28 01:10:13;;;;;;;4.18;3.70;;;1.10;99.90;;;;;;5021543;28;20072;-68
2021/11/28 01:12:41;;;;;;;9.95;4.25;;;1.10;99.90;;;;;;4998531;28;20034;-68
2021/11/28 01:15:08;;;;;;;8.05;4.53;;;1.00;99.90;;;;;;5021079;28;20487;-68
2021/11/28 01:17:35;;;;;;;5.25;3.60;;;1.00;99.90;;;;;;5021215;28;20032;-68
2021/11/28 01:20:02;;;;;;;5.32;3.83;;;1.10;99.90;;;;;;5020381;28;20175;-68
2021/11/28 01:22:28;;;;;;;5.45;3.67;;;1.00;99.90;;;;;;5021660;28;20034;-68
2021/11/28 01:24:53;;;;;;;5.60;4.30;;;1.00;99.90;;;;;;5016177;28;20034;-68
2021/11/28 01:27:19;;;;;;;3.55;3.22;;;1.00;99.90;;;;;;5004678;28;20029;-68
2021/11/28 01:29:45;;;;;;;5.72;3.78;;;1.00;99.90;;;;;;5017884;28;20602;-68
2021/11/28 01:32:11;;;;;;;5.82;3.78;;;1.00;99.90;;;;;;5021022;28;20483;-67
2021/11/28 01:34:38;;;;;;;7.45;3.42;;;1.10;99.90;;;;;;4998599;28;20720;-68
2021/11/28 01:37:05;;;;;;;5.72;4.22;;;1.00;99.90;;;;;;5016149;28;20057;-68
2021/11/28 01:39:31;;;;;;;6.00;4.15;;;1.00;99.90;;;;;;5020856;28;20083;-68
2021/11/28 01:41:57;;;;;;;4.85;3.80;;;1.00;99.90;;;;;;5018237;28;20081;-68
2021/11/28 01:44:23;;;;;;;4.88;3.70;;;1.00;99.90;;;;;;5018918;28;20057;-68
2021/11/28 01:46:48;;;;;;;5.90;4.00;;;1.10;99.90;;;;;;5023507;28;20406;-68
2021/11/28 01:49:15;;;;;;;4.57;3.40;;;1.00;99.90;;;;;;5020831;28;20079;-67
2021/11/28 01:51:41;;;;;;;6.22;4.38;;;1.00;99.90;;;;;;5019238;28;20485;-68
2021/11/28 01:54:14;;;;;;;4.28;3.63;;;1.10;99.90;;;;;;5026284;28;20049;-68
2021/11/28 01:56:45;;;;;;;6.35;4.22;;;1.00;99.90;;;;;;5023117;28;20116;-68
2021/11/28 01:59:13;;;;;;;4.82;3.17;;;1.00;99.90;;;;;;5021325;28;20036;-68
2021/11/28 02:01:39;;;;;;;6.13;4.35;;;1.00;99.90;;;;;;5023655;28;20041;-66
2021/11/28 02:04:07;;;;;;;5.50;4.00;;;1.00;99.90;;;;;;5017039;28;20029;-66
2021/11/28 02:06:33;;;;;;;5.18;3.78;;;1.00;99.90;;;;;;5016762;28;20386;-67
2021/11/28 02:08:59;;;;;;;7.68;3.92;;;1.00;99.90;;;;;;5015377;28;20033;-66
2021/11/28 02:11:25;;;;;;;5.82;3.72;;;1.00;99.90;;;;;;5019617;28;20098;-66
2021/11/28 02:13:50;;;;;;;5.85;3.10;;;1.00;99.90;;;;;;5024700;28;20087;-67
2021/11/28 02:16:16;;;;;;;6.15;3.88;;;1.00;99.90;;;;;;5014536;28;20479;-66
2021/11/28 02:18:42;;;;;;;5.50;3.10;;;1.00;99.90;;;;;;5023411;28;20456;-66
2021/11/28 02:21:11;;;;;;;4.38;3.40;;;1.00;99.90;;;;;;5000277;28;20022;-67
2021/11/28 02:23:38;;;;;;;6.05;3.22;;;1.00;99.90;;;;;;5021015;28;20025;-66
2021/11/28 02:26:07;;;;;;;8.30;3.78;;;1.00;99.90;;;;;;5022164;28;20491;-67
2021/11/28 02:28:32;;;;;;;;;;;1.00;99.90;;;;;;5023016;28;20022;-67
2021/11/28 02:30:58;;;;;;;4.45;2.88;;;1.00;99.90;;;;;;5016636;28;20394;-66
2021/11/28 02:33:24;;;;;;;5.75;3.65;;;1.00;99.90;;;;;;5019564;28;20030;-66
2021/11/28 02:35:50;;;;;;;4.07;3.38;;;1.00;99.90;;;;;;5004456;28;20037;-67
2021/11/28 02:38:16;;;;;;;3.15;2.85;;;1.00;99.90;;;;;;5017010;28;20086;-66
2021/11/28 02:40:43;;;;;;;3.40;3.03;;;0.90;99.90;;;;;;5003779;28;20095;-66
2021/11/28 02:43:10;;;;;;;4.28;3.38;;;0.90;99.90;;;;;;5027352;28;20893;-66
2021/11/28 02:45:36;;;;;;;2.90;2.28;;;0.90;99.90;;;;;;5025524;28;20025;-66
2021/11/28 02:48:04;;;;;;;3.95;3.00;;;0.90;99.90;;;;;;5005776;28;21004;-67
2021/11/28 02:50:30;;;;;;;3.63;2.40;;;1.00;99.90;;;;;;5013465;28;20290;-68
2021/11/28 02:52:59;;;;;;;3.28;2.80;;;0.90;99.90;;;;;;5020926;28;20414;-67
2021/11/28 02:55:29;;;;;;;3.17;2.80;;;1.00;99.90;;;;;;5012344;28;20061;-67
2021/11/28 02:57:56;;;;;;;5.30;2.90;;;0.90;99.90;;;;;;5017635;28;20033;-67
2021/11/28 03:00:23;;;;;;;2.77;2.53;;;0.90;99.90;;;;;;5010470;28;20029;-67
2021/11/28 03:02:49;;;;;;;3.40;2.53;;;1.00;99.90;;;;;;5016760;28;20026;-67
2021/11/28 03:05:14;;;;;;;3.20;2.90;;;0.90;99.90;;;;;;5014541;28;20030;-67
2021/11/28 03:07:41;;;;;;;3.50;2.55;;;0.90;99.90;;;;;;5021969;28;20534;-68
2021/11/28 03:10:44;;;;;;;3.35;2.78;;;1.00;99.90;;;;;;5015913;28;20060;-67
2021/11/28 03:13:35;;;;;;;3.58;2.63;;;1.00;99.90;;;;;;5015611;28;20444;-67
2021/11/28 03:16:04;;;;;;;2.92;2.13;;;0.90;99.90;;;;;;5016347;28;20045;-68
2021/11/28 03:18:31;;;;;;;2.75;2.10;;;0.90;99.90;;;;;;5015088;28;21131;-67
2021/11/28 03:21:01;;;;;;;2.60;2.25;;;0.90;99.90;;;;;;5022280;28;20116;-67
2021/11/28 03:23:29;;;;;;;2.53;2.20;;;0.90;99.90;;;;;;5022215;28;20117;-67
2021/11/28 03:26:15;;;;;;;2.47;2.25;;;0.90;99.90;;;;;;5026414;28;20116;-67
2021/11/28 03:28:48;;;;;;;4.90;2.60;;;0.90;99.90;;;;;;5024744;28;20080;-67
2021/11/28 03:31:15;;;;;;;2.95;2.55;;;0.90;99.90;;;;;;5004989;28;20420;-67
2021/11/28 03:33:41;;;;;;;2.90;2.58;;;0.80;99.90;;;;;;5019413;28;20056;-67
2021/11/28 03:36:08;;;;;;;4.80;2.78;;;0.80;99.90;;;;;;5010391;28;20507;-67
2021/11/28 03:38:34;;;;;;;2.47;2.28;;;0.80;99.90;;;;;;5010283;28;20022;-67
2021/11/28 03:41:00;;;;;;;8.73;2.90;;;0.80;99.90;;;;;;5024074;28;20030;-67
2021/11/28 03:43:26;;;;;;;2.72;2.42;;;0.80;99.90;;;;;;5021737;28;20029;-68
2021/11/28 03:45:51;;;;;;;3.08;2.78;;;0.80;99.90;;;;;;5022407;28;20040;-67
2021/11/28 03:48:17;;;;;;;2.53;2.38;;;0.70;99.90;;;;;;5023590;28;20022;-67
2021/11/28 03:50:43;;;;;;;2.60;2.28;;;0.80;99.90;;;;;;5019005;28;20045;-67
2021/11/28 03:53:10;;;;;;;2.83;2.13;;;0.70;99.90;;;;;;5022246;28;20037;-67
2021/11/28 03:55:36;;;;;;;5.55;2.70;;;0.80;99.90;;;;;;5023364;28;20029;-67
2021/11/28 03:58:03;;;;;;;3.03;2.55;;;0.70;99.90;;;;;;5021469;28;20018;-67
2021/11/28 04:00:29;;;;;;;4.97;3.25;;;0.80;99.90;;;;;;5014060;28;20018;-67
2021/11/28 04:02:54;;;;;;;3.17;2.60;;;0.80;99.90;;;;;;5016423;28;20030;-67
2021/11/28 04:05:20;;;;;;;3.55;2.80;;;0.80;99.90;;;;;;5016600;28;20041;-67
2021/11/28 04:07:46;;;;;;;4.63;2.90;;;0.80;99.90;;;;;;5018546;28;20103;-68
2021/11/28 04:10:12;;;;;;;2.47;2.28;;;0.80;99.90;;;;;;5017836;28;20127;-67
2021/11/28 04:12:38;;;;;;;2.38;2.17;;;0.80;99.90;;;;;;5024532;28;20029;-67
2021/11/28 04:15:04;;;;;;;2.80;2.58;;;0.80;99.90;;;;;;5003950;28;20440;-67
2021/11/28 04:17:30;;;;;;;3.13;2.65;;;0.80;99.90;;;;;;5024052;28;20026;-67
2021/11/28 04:19:56;;;;;;;3.38;2.70;;;0.80;99.90;;;;;;5018290;28;20032;-67
2021/11/28 04:22:22;;;;;;;10.85;3.08;;;0.80;99.90;;;;;;5022260;28;20029;-67
2021/11/28 04:24:48;;;;;;;4.93;2.75;;;0.80;99.90;;;;;;5000104;28;20037;-67
2021/11/28 04:27:14;;;;;;;2.90;2.70;;;0.80;99.90;;;;;;5021875;28;20021;-67
2021/11/28 04:29:41;;;;;;;3.90;2.92;;;0.80;99.90;;;;;;5017757;28;20413;-67
2021/11/28 04:32:07;;;;;;;3.65;3.25;;;0.80;99.90;;;;;;5022480;28;20037;-67
2021/11/28 04:34:33;;;;;;;3.42;3.10;;;0.80;99.90;;;;;;5020297;28;20033;-67
2021/11/28 04:36:58;;;;;;;3.40;2.95;;;0.70;99.90;;;;;;5027701;28;20041;-67
2021/11/28 04:39:24;;;;;;;3.65;2.92;;;0.70;99.90;;;;;;5020707;28;20036;-67
2021/11/28 04:41:50;;;;;;;2.90;2.47;;;0.80;99.90;;;;;;5020375;28;20038;-68
2021/11/28 04:44:15;;;;;;;3.60;2.75;;;0.70;99.90;;;;;;5025685;28;20032;-67
2021/11/28 04:46:41;;;;;;;2.15;1.98;;;0.70;99.90;;;;;;5019114;28;20049;-67
2021/11/28 04:49:07;;;;;;;2.40;2.30;;;0.70;99.90;;;;;;5016243;28;20037;-67
2021/11/28 04:51:33;;;;;;;2.05;1.95;;;0.70;99.90;;;;;;5021950;28;20033;-67
2021/11/28 04:53:59;;;;;;;2.70;2.50;;;0.70;99.90;;;;;;5024011;28;20041;-67
2021/11/28 04:56:26;;;;;;;4.68;4.28;;;0.70;99.90;;;;;;5021853;28;20550;-67
2021/11/28 04:58:52;;;;;;;4.85;4.45;;;0.80;99.90;;;;;;5013971;28;20037;-67
2021/11/28 05:01:18;;;;;;;2.17;2.08;;;0.70;99.90;;;;;;5023764;28;20064;-67
2021/11/28 05:03:44;;;;;;;2.35;2.17;;;0.70;99.90;;;;;;5020118;28;20036;-67
2021/11/28 05:06:10;;;;;;;2.55;2.25;;;0.70;99.90;;;;;;5022225;28;20038;-67
2021/11/28 05:08:35;;;;;;;2.78;2.17;;;0.70;99.90;;;;;;5017794;28;20141;-67
2021/11/28 05:11:01;;;;;;;3.38;2.50;;;0.70;99.90;;;;;;5021776;28;20095;-67
2021/11/28 05:13:26;;;;;;;3.60;2.53;;;0.70;99.90;;;;;;5023284;28;20501;-67
2021/11/28 05:15:52;;;;;;;3.35;3.05;;;0.70;99.90;;;;;;4997120;28;20048;-67
2021/11/28 05:18:17;;;;;;;3.33;3.03;;;0.60;99.90;;;;;;5017049;28;20479;-67
2021/11/28 05:20:46;;;;;;;4.00;2.95;;;0.70;99.90;;;;;;5023629;28;20037;-67
2021/11/28 05:23:12;;;;;;;4.32;3.22;;;0.60;99.90;;;;;;5000938;28;20033;-67
2021/11/28 05:25:38;;;;;;;5.97;3.35;;;0.70;99.90;;;;;;5016514;28;20601;-67
2021/11/28 05:28:06;;;;;;;3.33;3.03;;;0.70;99.90;;;;;;5018291;28;20403;-67
2021/11/28 05:30:32;;;;;;;4.28;3.05;;;0.70;99.90;;;;;;5016769;28;20406;-67
2021/11/28 05:32:57;;;;;;;4.30;2.72;;;0.70;99.90;;;;;;5020445;28;20036;-67
2021/11/28 05:35:23;;;;;;;2.78;2.30;;;0.70;99.90;;;;;;5005932;28;20038;-67
2021/11/28 05:37:49;;;;;;;3.58;2.85;;;0.70;99.90;;;;;;5027769;28;20501;-67
2021/11/28 05:40:15;;;;;;;3.17;2.88;;;0.70;99.90;;;;;;5013383;28;20475;-68
2021/11/28 05:42:45;;;;;;;3.80;3.30;;;0.70;99.90;;;;;;5019615;28;20407;-67
2021/11/28 05:45:11;;;;;;;2.10;2.00;;;0.70;99.90;;;;;;5015426;28;20041;-67
2021/11/28 05:47:36;;;;;;;3.58;3.00;;;0.70;99.90;;;;;;5012885;28;20030;-67
2021/11/28 05:50:04;;;;;;;3.08;2.70;;;0.70;99.90;;;;;;5004145;28;20128;-68
2021/11/28 05:52:29;;;;;;;5.45;2.88;;;0.60;99.90;;;;;;5021141;28;20478;-67
2021/11/28 05:54:56;;;;;;;3.17;2.75;;;0.60;99.90;;;;;;5026402;28;20054;-67
2021/11/28 05:57:22;;;;;;;3.20;2.60;;;0.60;99.90;;;;;;5019677;28;20037;-67
2021/11/28 05:59:47;;;;;;;2.90;2.70;;;0.70;99.90;;;;;;5020748;28;20337;-67
2021/11/28 06:02:13;;;;;;;2.55;2.35;;;0.70;99.90;;;;;;5005142;28;20037;-67
2021/11/28 06:04:39;;;;;;;2.97;1.95;;;0.70;99.90;;;;;;5026728;28;20102;-67
2021/11/28 06:07:04;;;;;;;2.72;2.30;;;0.70;99.90;;;;;;5019713;28;20025;-67
2021/11/28 06:09:30;;;;;;;2.92;2.60;;;0.70;99.90;;;;;;5024023;28;20030;-67
2021/11/28 06:11:56;;;;;;;3.60;1.98;;;0.70;99.90;;;;;;5021963;28;20021;-67
2021/11/28 06:14:22;;;;;;;2.88;2.33;;;0.70;99.90;;;;;;5020868;28;20038;-67
2021/11/28 06:16:47;;;;;;;3.22;2.20;;;0.70;99.90;;;;;;5021727;28;20044;-67
2021/11/28 06:19:13;;;;;;;3.10;2.80;;;0.70;99.90;;;;;;5016411;28;20033;-67
2021/11/28 06:21:39;;;;;;;3.53;2.13;;;0.60;99.90;;;;;;5021658;28;20166;-67
2021/11/28 06:24:04;;;;;;;3.70;2.95;;;0.70;99.90;;;;;;5018272;28;20021;-67
2021/11/28 06:26:30;;;;;;;2.90;2.70;;;0.70;99.90;;;;;;5017108;28;20099;-68
2021/11/28 06:28:56;;;;;;;3.65;2.65;;;0.70;99.90;;;;;;5024229;28;20036;-67
2021/11/28 06:31:21;;;;;;;4.25;2.97;;;0.70;99.90;;;;;;5019894;28;20113;-67
2021/11/28 06:33:47;;;;;;;4.18;2.75;;;0.70;99.90;;;;;;5018991;28;20029;-68
2021/11/28 06:36:13;;;;;;;2.42;2.20;;;0.70;99.90;;;;;;5022681;28;20126;-67
2021/11/28 06:38:39;;;;;;;2.30;2.10;;;0.70;99.90;;;;;;5015749;28;20045;-67
2021/11/28 06:41:04;;;;;;;2.53;2.25;;;0.70;99.90;;;;;;4998932;28;20175;-67
2021/11/28 06:43:30;;;;;;;4.18;2.40;;;0.70;99.90;;;;;;5021805;28;20056;-68
2021/11/28 06:45:56;;;;;;;3.13;2.63;;;0.60;99.90;;;;;;5006629;28;20782;-67
2021/11/28 06:48:22;;;;;;;3.92;2.75;;;0.70;99.90;;;;;;5020690;28;20022;-67
2021/11/28 06:50:49;;;;;;;3.25;2.90;;;0.70;99.90;;;;;;5006032;28;20052;-67
2021/11/28 06:53:16;;;;;;;2.47;2.28;;;0.70;99.90;;;;;;4996961;28;20045;-67
2021/11/28 06:55:42;;;;;;;1.95;1.85;;;0.70;99.90;;;;;;5016244;28;20120;-67
2021/11/28 06:58:08;;;;;;;2.33;2.03;;;0.70;99.90;;;;;;4998132;28;20506;-67
2021/11/28 07:00:33;;;;;;;3.10;2.47;;;0.70;99.90;;;;;;4999950;28;20102;-67
2021/11/28 07:02:59;;;;;;;4.57;3.05;;;0.70;99.90;;;;;;4993840;28;20029;-68
2021/11/28 07:05:24;;;;;;;2.55;2.35;;;0.70;99.90;;;;;;4998970;28;20036;-67
2021/11/28 07:07:50;;;;;;;2.58;2.40;;;0.70;99.90;;;;;;4997166;28;20053;-67
2021/11/28 07:10:16;;;;;;;2.65;2.13;;;0.80;99.90;;;;;;4997669;28;20034;-67
2021/11/28 07:12:43;;;;;;;2.22;2.10;;;0.80;99.90;;;;;;4995585;28;20030;-67
2021/11/28 07:15:10;;;;;;;3.10;2.15;;;0.80;99.90;;;;;;4993339;28;20120;-67
2021/11/28 07:17:35;;;;;;;2.10;2.00;;;0.80;99.90;;;;;;4999475;28;20072;-67
2021/11/28 07:20:01;;;;;;;2.50;2.30;;;0.80;99.90;;;;;;5000396;28;20030;-67
2021/11/28 07:22:26;;;;;;;6.82;3.08;;;0.80;99.90;;;;;;4995601;28;20035;-68
2021/11/28 07:24:52;;;;;;;2.97;2.30;;;0.80;99.90;;;;;;5000207;28;20030;-67
2021/11/28 07:27:18;;;;;;;3.10;2.63;;;0.80;99.90;;;;;;4998161;28;20112;-67
2021/11/28 07:29:43;;;;;;;3.45;2.80;;;0.80;99.90;;;;;;5001656;28;20749;-67
2021/11/28 07:32:09;;;;;;;3.13;2.63;;;0.80;99.90;;;;;;4996249;28;20450;-68
2021/11/28 07:34:34;;;;;;;3.92;3.00;;;0.70;99.90;;;;;;4992630;28;20056;-67
2021/11/28 07:37:00;;;;;;;3.67;2.63;;;0.80;99.90;;;;;;4988154;28;20415;-67
2021/11/28 07:39:26;;;;;;;5.00;2.60;;;0.80;99.90;;;;;;5001014;28;20030;-68
2021/11/28 07:41:51;;;;;;;3.08;1.77;;;0.80;99.90;;;;;;5001588;28;20022;-67
2021/11/28 07:44:17;;;;;;;4.25;2.72;;;0.80;99.90;;;;;;5002704;28;20057;-67
2021/11/28 07:46:43;;;;;;;2.55;2.35;;;0.80;99.90;;;;;;4999685;28;20449;-67
2021/11/28 07:49:08;;;;;;;6.32;3.42;;;0.80;99.90;;;;;;5005308;28;20755;-67
2021/11/28 07:51:34;;;;;;;3.15;2.63;;;0.80;99.90;;;;;;5004957;28;20040;-67
2021/11/28 07:54:01;;;;;;;5.90;2.38;;;0.90;99.90;;;;;;5018675;28;20041;-67
2021/11/28 07:56:27;;;;;;;3.85;2.63;;;0.90;99.90;;;;;;5000197;28;20046;-68
2021/11/28 07:58:53;;;;;;;3.05;2.67;;;0.90;99.90;;;;;;5001479;28;20040;-68
2021/11/28 08:01:18;;;;;;;3.53;2.53;;;0.90;99.90;;;;;;5001817;28;20233;-68
2021/11/28 08:03:44;;;;;;;3.70;3.20;;;0.90;99.90;;;;;;5018073;28;20458;-68
2021/11/28 08:06:10;;;;;;;4.25;2.42;;;1.00;99.90;;;;;;5017719;28;20045;-68
2021/11/28 08:08:36;;;;;;;4.88;2.70;;;1.00;99.90;;;;;;5018013;28;20483;-68
2021/11/28 08:11:02;;;;;;;4.53;2.72;;;0.90;99.90;;;;;;5016695;28;20486;-68
2021/11/28 08:13:27;;;;;;;3.75;3.08;;;0.90;99.90;;;;;;5020768;28;20516;-68
2021/11/28 08:15:53;;;;;;;3.83;3.47;;;1.00;99.90;;;;;;5002967;28;20045;-68
2021/11/28 08:18:19;;;;;;;3.55;3.08;;;1.00;99.90;;;;;;5019074;28;22013;-68
2021/11/28 08:20:44;;;;;;;5.30;3.60;;;0.90;99.90;;;;;;5022785;28;20506;-68
2021/11/28 08:23:10;;;;;;;3.22;2.92;;;0.90;99.90;;;;;;5018999;28;20045;-68
2021/11/28 08:25:36;;;;;;;3.33;2.45;;;1.00;99.90;;;;;;5020923;28;20861;-68
2021/11/28 08:28:06;;;;;;;4.25;3.35;;;1.00;99.90;;;;;;5019467;28;20037;-68
2021/11/28 08:30:32;;;;;;;3.97;3.20;;;1.00;99.90;;;;;;5020354;28;20091;-68
2021/11/28 08:32:58;;;;;;;3.47;3.17;;;0.90;99.90;;;;;;5022617;28;20543;-68
2021/11/28 08:35:23;;;;;;;6.13;3.28;;;1.00;99.90;;;;;;5003294;28;20037;-68
2021/11/28 08:37:49;;;;;;;4.00;3.63;;;1.00;99.90;;;;;;5021089;28;20025;-68
2021/11/28 08:40:17;;;;;;;5.90;3.47;;;1.00;99.90;;;;;;5021304;28;20034;-68
2021/11/28 08:42:43;;;;;;;4.38;3.35;;;1.00;99.90;;;;;;5005068;28;20784;-68
2021/11/28 08:45:11;;;;;;;5.07;3.33;;;1.00;99.90;;;;;;5001039;28;20120;-68
2021/11/28 08:47:37;;;;;;;5.80;3.83;;;1.10;99.90;;;;;;5018738;28;20026;-68
2021/11/28 08:50:05;;;;;;;6.30;4.13;;;1.10;99.90;;;;;;5018195;28;20026;-68
2021/11/28 08:52:31;;;;;;;6.93;4.60;;;1.10;99.90;;;;;;5023203;28;20045;-68
2021/11/28 08:54:57;;;;;;;8.98;5.20;;;1.20;99.90;;;;;;5022566;28;20032;-68
2021/11/28 08:57:22;;;;;;;8.55;5.25;;;1.10;99.90;;;;;;5017408;28;20045;-68
2021/11/28 08:59:49;;;;;;;6.05;4.13;;;1.20;99.90;;;;;;5022133;28;20031;-68
2021/11/28 09:02:16;;;;;;;7.20;4.28;;;1.20;99.90;;;;;;5002006;28;20038;-68
2021/11/28 09:04:42;;;;;;;4.78;3.97;;;1.20;99.90;;;;;;5020229;28;20022;-68
2021/11/28 09:07:08;;;;;;;4.35;3.53;;;1.20;99.90;;;;;;5003673;28;20506;-68
2021/11/28 09:09:35;;;;;;;5.07;3.53;;;1.20;99.90;;;;;;5015925;28;20106;-68
2021/11/28 09:12:01;;;;;;;4.28;3.60;;;1.20;99.90;;;;;;5017465;28;20029;-68
2021/11/28 09:14:27;;;;;;;5.75;3.50;;;1.20;99.90;;;;;;5017348;28;20124;-68
2021/11/28 09:16:53;;;;;;;3.92;3.20;;;1.20;99.90;;;;;;5018139;28;20087;-68
2021/11/28 09:19:23;;;;;;;5.72;3.70;;;1.20;99.90;;;;;;5014937;28;20025;-68
2021/11/28 09:21:49;;;;;;;5.85;3.53;;;1.30;99.90;;;;;;5017009;28;20383;-69
2021/11/28 09:26:50;;;;;;;6.90;3.28;;;1.30;99.90;;;;;;5017595;28;20026;-68
2021/11/28 09:29:15;;;;;;;5.32;3.45;;;1.30;99.90;;;;;;5018556;28;20380;-68
2021/11/28 09:31:41;;;;;;;3.83;3.15;;;1.30;99.90;;;;;;5016647;28;20029;-68
2021/11/28 09:34:07;;;;;;;4.20;3.80;;;1.30;99.90;;;;;;5019902;28;20034;-68
2021/11/28 09:36:33;;;;;;;3.50;3.20;;;1.30;99.90;;;;;;5013634;28;20484;-68
2021/11/28 09:39:00;;;;;;;3.47;3.17;;;1.40;99.90;;;;;;5023936;28;20033;-68
2021/11/28 09:41:35;;;;;;;3.65;3.35;;;1.40;99.90;;;;;;5022429;28;20022;-69
2021/11/28 09:44:07;;;;;;;3.65;3.35;;;1.50;99.90;;;;;;5011940;28;20486;-68
2021/11/28 09:46:33;;;;;;;3.13;2.88;;;1.40;99.90;;;;;;5016756;28;20057;-68
2021/11/28 09:49:03;;;;;;;3.33;3.08;;;1.40;99.90;;;;;;5020519;28;20660;-68
2021/11/28 09:51:29;;;;;;;3.40;3.10;;;1.40;99.90;;;;;;5017013;28;20029;-69
2021/11/28 09:54:01;;;;;;;3.72;3.10;;;1.40;99.90;;;;;;5021396;28;20049;-68
2021/11/28 09:56:27;;;;;;;6.65;3.17;;;1.40;99.90;;;;;;5019130;28;20030;-69
2021/11/28 09:58:54;;;;;;;3.42;3.10;;;1.40;99.90;;;;;;5017635;28;20033;-69
2021/11/28 10:01:20;;;;;;;4.35;3.95;;;1.40;99.90;;;;;;5018216;28;20572;-68
2021/11/28 10:03:46;;;;;;;4.65;3.15;;;1.40;99.90;;;;;;4999996;28;20030;-68
2021/11/28 10:06:12;;;;;;;2.67;2.47;;;1.50;99.90;;;;;;5019484;28;20038;-68
2021/11/28 10:08:38;;;;;;;6.30;3.75;;;1.50;99.90;;;;;;5017855;28;20041;-68
2021/11/28 10:11:19;;;;;;;4.47;3.20;;;1.50;99.90;;;;;;5016725;28;20036;-68
2021/11/28 10:13:46;;;;;;;6.68;3.85;;;1.60;99.90;;;;;;5019588;28;20040;-68
2021/11/28 10:16:13;;;;;;;3.50;2.92;;;1.60;99.90;;;;;;5020139;28;20041;-68
2021/11/28 10:18:39;;;;;;;6.55;4.15;;;1.60;99.90;;;;;;5016907;28;20017;-68
2021/11/28 10:21:05;;;;;;;7.75;3.60;;;1.60;99.90;;;;;;4997770;28;20029;-68
2021/11/28 10:23:31;;;;;;;3.90;3.50;;;1.60;99.90;;;;;;5017315;28;20033;-68
2021/11/28 10:26:16;;;;;;;5.93;3.47;;;1.60;99.90;;;;;;5018703;28;20113;-68
2021/11/28 10:29:13;;;;;;;6.05;3.55;;;1.60;99.90;;;;;;5018825;28;20037;-67
2021/11/28 10:31:51;;;;;;;4.97;3.67;;;1.60;99.90;;;;;;4997278;28;20162;-67
2021/11/28 10:34:22;;;;;;;4.15;3.15;;;1.70;99.90;;;;;;5017919;28;20041;-67
2021/11/28 10:36:49;;;;;;;4.70;3.75;;;1.70;99.90;;;;;;5015740;28;20037;-67
2021/11/28 10:39:21;;;;;;;5.43;3.67;;;1.70;99.90;;;;;;5018582;28;20096;-67
2021/11/28 10:41:52;;;;;;;6.38;3.67;;;1.70;99.90;;;;;;5016978;28;20053;-67
2021/11/28 10:44:20;;;;;;;4.30;3.20;;;1.70;99.90;;;;;;5009607;28;20022;-67
2021/11/28 10:46:46;;;;;;;3.80;3.22;;;1.60;99.90;;;;;;5016046;28;20033;-67
2021/11/28 10:49:21;;;;;;;4.78;3.85;;;1.70;99.90;;;;;;4997650;28;20491;-67
2021/11/28 10:51:54;;;;;;;3.63;3.33;;;1.70;99.90;;;;;;5022323;28;20414;-67
2021/11/28 10:54:32;;;;;;;5.32;3.38;;;1.70;99.90;;;;;;5001296;28;20049;-67
2021/11/28 10:57:18;;;;;;;5.22;3.60;;;1.70;99.90;;;;;;5016041;28;20363;-66
2021/11/28 10:59:54;;;;;;;3.67;3.33;;;1.70;99.90;;;;;;5002561;28;20067;-66
2021/11/28 11:02:31;;;;;;;7.80;4.15;;;1.70;99.90;;;;;;5017778;28;20128;-66
2021/11/28 11:04:58;;;;;;;14.05;3.50;;;1.80;99.90;;;;;;5000852;28;20041;-66
2021/11/28 11:07:25;;;;;;;5.57;2.85;;;1.80;99.90;;;;;;5013902;28;20390;-66
2021/11/28 11:09:53;;;;;;;3.70;3.40;;;1.80;99.90;;;;;;4995892;28;20029;-66
2021/11/28 11:12:28;;;;;;;4.80;3.67;;;1.90;99.90;;;;;;5012501;28;20029;-66
2021/11/28 11:14:56;;;;;;;3.90;3.40;;;1.90;99.90;;;;;;5018080;28;20029;-66
2021/11/28 11:17:23;;;;;;;4.05;3.67;;;1.90;99.90;;;;;;5018101;28;20474;-67
2021/11/28 11:19:49;;;;;;;5.32;4.03;;;1.90;99.90;;;;;;5014408;28;20033;-66
2021/11/28 11:22:21;;;;;;;3.55;3.25;;;2.00;99.90;;;;;;5020164;28;20390;-66
2021/11/28 11:24:59;;;;;;;5.55;4.05;;;2.00;99.90;;;;;;5015671;28;20022;-66
2021/11/28 11:27:33;;;;;;;16.07;6.30;;;2.00;99.90;;;;;;4999559;28;20125;-67
2021/11/28 11:30:02;;;;;;;7.45;4.78;;;2.00;99.90;;;;;;5016788;28;20367;-66
2021/11/28 11:32:50;;;;;;;11.57;5.35;;;2.10;99.90;;;;;;5013329;28;20056;-67
2021/11/28 11:35:17;;;;;;;;;;;2.10;99.90;;;;;;5015260;28;20150;-66
2021/11/28 11:37:43;;;;;;;2.72;2.53;;;2.10;99.90;;;;;;4997406;28;20007;-66
2021/11/28 11:40:10;;;;;;;5.43;4.43;;;2.10;99.90;;;;;;5016833;28;20036;-66
2021/11/28 11:42:38;;;;;;;6.07;4.28;;;2.10;99.90;;;;;;5016817;28;20030;-67
2021/11/28 11:45:06;;;;;;;8.38;4.88;;;2.20;99.90;;;;;;5022605;28;20414;-67
2021/11/28 11:47:32;;;;;;;12.90;5.75;;;2.20;99.90;;;;;;5016455;28;20482;-67
2021/11/28 11:49:57;;;;;;;7.40;3.70;;;2.20;99.90;;;;;;5018539;28;20030;-66
2021/11/28 11:52:24;;;;;;;4.43;3.92;;;2.20;99.90;;;;;;5020523;28;20524;-66
2021/11/28 11:55:02;;;;;;;6.50;4.20;;;2.20;99.90;;;;;;5000526;28;20025;-66
2021/11/28 11:57:36;;;;;;;6.88;4.90;;;2.20;99.90;;;;;;5006118;28;20056;-66
2021/11/28 12:00:11;;;;;;;13.68;5.72;;;2.30;99.90;;;;;;5000782;28;20156;-67
2021/11/28 12:02:39;;;;;;;9.63;5.05;;;2.30;99.90;;;;;;5016141;28;20041;-66
2021/11/28 12:05:23;;;;;;;13.68;6.18;;;2.30;99.90;;;;;;5019716;28;20026;-66
2021/11/28 12:07:58;;;;;;;64.65;19.98;;;2.30;99.90;;;;;;5021697;28;20032;-66
2021/11/28 12:10:39;;;;;;;30.80;12.30;;;2.30;99.90;;;;;;5006414;28;20033;-67
2021/11/28 12:13:27;;;;;;;25.75;9.82;;;2.40;99.90;;;;;;5018612;28;20081;-67
2021/11/28 12:16:08;;;;;;;13.10;6.22;;;2.40;99.90;;;;;;5023142;28;20033;-66
2021/11/28 12:18:41;;;;;;;5.25;4.28;;;2.50;99.90;;;;;;5019521;28;20080;-66
2021/11/28 12:21:18;;;;;;;15.68;7.63;;;2.50;99.90;;;;;;5020950;28;20129;-66
2021/11/28 12:23:43;;;;;;;15.85;7.50;;;2.50;99.90;;;;;;5020438;28;20622;-67
2021/11/28 12:26:30;;;;;;;5.18;4.07;;;2.60;99.90;;;;;;5021798;28;20030;-65
2021/11/28 12:30:34;;;;;;;22.88;10.63;;;2.60;99.90;;;;;;5100846;27;20989;-66
2021/11/28 12:33:00;;;;;;;6.20;4.00;;;2.60;99.90;;;;;;5058822;28;20094;-66
2021/11/28 12:35:38;;;;;;;11.20;4.90;;;2.60;99.90;;;;;;5044318;28;20481;-65
2021/11/28 12:38:04;;;;;;;10.63;5.32;;;2.60;99.90;;;;;;5053559;28;20032;-66
2021/11/28 12:40:34;;;;;;;10.60;5.82;;;2.60;99.90;;;;;;5061246;28;20083;-66
2021/11/28 12:43:20;;;;;;;14.68;5.82;;;2.60;99.90;;;;;;5061401;28;20038;-66
2021/11/28 12:45:47;;;;;;;16.92;6.07;;;2.70;99.90;;;;;;5065696;28;20033;-66
2021/11/28 12:48:22;;;;;;;5.60;3.63;;;2.70;99.90;;;;;;5052362;28;20098;-66
2021/11/28 12:50:51;;;;;;;10.25;5.80;;;2.70;99.90;;;;;;5060722;28;20028;-66
2021/11/28 12:53:39;;;;;;;6.80;4.28;;;2.70;99.90;;;;;;5058099;28;20063;-66
2021/11/28 12:56:11;;;;;;;5.18;4.05;;;2.80;99.90;;;;;;5062437;28;20390;-65
2021/11/28 12:59:08;;;;;;;7.65;4.32;;;2.70;99.90;;;;;;5053200;28;20787;-65
2021/11/28 13:02:03;;;;;;;36.35;11.45;;;2.80;99.90;;;;;;5048067;28;20501;-66
2021/11/28 13:04:40;;;;;;;40.35;12.82;;;2.80;99.90;;;;;;5022350;28;20068;-67
2021/11/28 13:07:23;;;;;;;7.67;4.60;;;2.80;99.90;;;;;;5040688;28;20033;-66
2021/11/28 13:09:49;;;;;;;6.20;4.55;;;2.80;99.90;;;;;;5036147;28;21037;-66